createdAt,value
2018-11-10T00:00:21.918Z,110.97
2018-11-10T00:02:51.866Z,93.80
2018-11-10T00:05:21.503Z,90.40
2018-11-10T00:07:50.106Z,95.73
2018-11-10T00:10:25.287Z,99.53
2018-11-10T00:12:54.200Z,89.63
2018-11-10T00:15:22.798Z,90.77
2018-11-10T00:17:51.379Z,100.70
2018-11-10T00:20:19.912Z,98.13
2018-11-10T00:22:48.494Z,126.03
2018-11-10T00:25:17.921Z,102.70
2018-11-10T00:27:47.037Z,99.27
2018-11-10T00:30:18.659Z,95.70
2018-11-10T00:32:48.382Z,95.10
2018-11-10T00:35:17.054Z,108.13
2018-11-10T00:37:46.261Z,98.60
2018-11-10T00:40:16.773Z,98.33
2018-11-10T00:42:47.365Z,85.27
2018-11-10T00:45:17.354Z,90.80
2018-11-10T00:47:46.978Z,84.87
2018-11-10T00:50:16.895Z,86.67
2018-11-10T00:52:47.456Z,85.03
2018-11-10T00:55:17.132Z,101.13
2018-11-10T00:57:47.109Z,88.13
2018-11-10T01:00:16.578Z,86.50
2018-11-10T01:02:46.685Z,94.40
2018-11-10T01:05:17.482Z,95.27
2018-11-10T01:07:47.047Z,102.30
2018-11-10T01:12:40.703Z,109.40
2018-11-10T01:15:12.458Z,98.07
2018-11-10T01:17:41.835Z,117.10
2018-11-10T01:20:11.343Z,111.57
2018-11-10T01:22:40.821Z,90.57
2018-11-10T01:25:11.383Z,102.40
2018-11-10T01:27:40.988Z,93.37
2018-11-10T01:30:13.282Z,84.33
2018-11-10T01:32:43.420Z,89.93
2018-11-10T01:35:14.201Z,94.27
2018-11-10T01:37:44.880Z,79.20
2018-11-10T01:40:15.076Z,96.97
2018-11-10T01:42:45.099Z,97.63
2018-11-10T01:45:16.701Z,94.23
2018-11-10T01:47:46.977Z,101.90
2018-11-10T01:50:16.546Z,117.27
2018-11-10T01:52:46.635Z,106.90
2018-11-10T01:55:16.642Z,108.40
2018-11-10T01:57:46.900Z,102.33
2018-11-10T02:00:18.430Z,95.63
2018-11-10T02:02:47.594Z,113.03
2018-11-10T02:05:17.605Z,101.57
2018-11-10T02:07:46.749Z,110.30
2018-11-10T02:10:17.289Z,153.57
2018-11-10T02:12:46.778Z,171.13
2018-11-10T02:15:17.983Z,156.13
2018-11-10T02:17:47.442Z,104.77
2018-11-10T02:20:17.783Z,140.67
2018-11-10T02:22:46.961Z,117.57
2018-11-10T02:25:16.618Z,169.43
2018-11-10T02:27:46.447Z,196.37
2018-11-10T02:30:15.545Z,249.87
2018-11-10T02:32:44.605Z,193.90
2018-11-10T02:35:15.786Z,168.47
2018-11-10T02:37:45.160Z,182.20
2018-11-10T02:40:14.971Z,124.97
2018-11-10T02:42:45.223Z,161.60
2018-11-10T02:45:15.306Z,194.73
2018-11-10T02:47:45.472Z,136.07
2018-11-10T02:50:14.781Z,105.97
2018-11-10T02:52:43.367Z,162.63
2018-11-10T02:55:12.366Z,138.80
2018-11-10T02:57:41.392Z,205.87
2018-11-10T03:00:11.458Z,131.77
2018-11-10T03:02:40.048Z,133.33
2018-11-10T03:05:09.115Z,114.40
2018-11-10T03:07:38.336Z,130.27
2018-11-10T03:10:08.472Z,99.10
2018-11-10T03:12:37.407Z,126.73
2018-11-10T03:15:06.939Z,137.17
2018-11-10T03:17:35.547Z,82.87
2018-11-10T03:20:04.383Z,100.63
2018-11-10T03:22:32.948Z,111.73
2018-11-10T03:25:01.504Z,115.33
2018-11-10T03:27:30.126Z,108.00
2018-11-10T03:29:59.565Z,104.13
2018-11-10T03:32:28.999Z,112.77
2018-11-10T03:34:58.717Z,98.70
2018-11-10T03:37:28.201Z,76.53
2018-11-10T03:39:57.630Z,81.43
2018-11-10T03:42:27.062Z,108.30
2018-11-10T03:44:56.753Z,108.90
2018-11-10T03:47:26.248Z,116.10
2018-11-10T03:49:56.062Z,108.80
2018-11-10T03:52:24.740Z,117.10
2018-11-10T03:54:54.180Z,126.27
2018-11-10T03:57:23.802Z,86.80
2018-11-10T03:59:53.356Z,109.57
2018-11-10T04:02:21.936Z,118.67
2018-11-10T04:04:51.408Z,116.73
2018-11-10T04:07:20.092Z,120.73
2018-11-10T04:09:49.702Z,80.30
2018-11-10T04:12:19.470Z,81.73
2018-11-10T04:14:48.183Z,75.57
2018-11-10T04:17:17.674Z,76.90
2018-11-10T04:19:48.187Z,78.13
2018-11-10T04:22:21.826Z,89.57
2018-11-10T04:24:51.553Z,88.60
2018-11-10T04:27:21.289Z,100.63
2018-11-10T04:29:50.840Z,80.40
2018-11-10T04:32:20.438Z,94.23
2018-11-10T04:34:49.866Z,76.33
2018-11-10T04:37:19.281Z,74.90
2018-11-10T04:39:48.721Z,100.93
2018-11-10T04:42:18.152Z,105.80
2018-11-10T04:44:47.705Z,110.33
2018-11-10T04:47:17.385Z,93.53
2018-11-10T04:49:46.911Z,93.13
2018-11-10T04:52:17.482Z,85.40
2018-11-10T04:54:46.920Z,87.43
2018-11-10T04:57:17.477Z,90.90
2018-11-10T04:59:47.027Z,103.87
2018-11-10T05:02:16.453Z,95.60
2018-11-10T05:04:46.758Z,88.20
2018-11-10T05:07:17.245Z,89.07
2018-11-10T05:09:46.834Z,80.57
2018-11-10T05:12:16.390Z,77.67
2018-11-10T05:14:46.684Z,77.80
2018-11-10T05:17:16.307Z,92.43
2018-11-10T05:19:46.676Z,84.17
2018-11-10T05:22:17.270Z,86.20
2018-11-10T05:24:46.716Z,89.73
2018-11-10T05:27:17.276Z,88.67
2018-11-10T05:29:46.937Z,83.37
2018-11-10T05:32:15.664Z,82.47
2018-11-10T05:34:46.042Z,85.63
2018-11-10T05:37:15.725Z,91.90
2018-11-10T05:39:45.822Z,84.00
2018-11-10T05:42:14.479Z,86.37
2018-11-10T05:44:43.646Z,88.97
2018-11-10T05:47:12.214Z,80.73
2018-11-10T05:49:40.759Z,90.83
2018-11-10T05:52:09.317Z,100.77
2018-11-10T05:54:37.972Z,97.57
2018-11-10T05:57:06.741Z,83.07
2018-11-10T05:59:35.287Z,90.37
2018-11-10T06:02:04.008Z,73.33
2018-11-10T06:04:32.673Z,81.63
2018-11-10T06:07:01.840Z,87.20
2018-11-10T06:09:30.585Z,76.87
2018-11-10T06:11:59.147Z,81.90
2018-11-10T06:14:27.880Z,92.50
2018-11-10T06:16:57.616Z,83.57
2018-11-10T06:19:26.151Z,115.57
2018-11-10T06:21:54.835Z,76.03
2018-11-10T06:24:24.667Z,77.77
2018-11-10T06:26:54.248Z,69.07
2018-11-10T06:29:22.785Z,91.97
2018-11-10T06:31:51.327Z,83.17
2018-11-10T06:34:20.983Z,93.70
2018-11-10T06:36:49.547Z,74.70
2018-11-10T06:39:18.192Z,86.93
2018-11-10T06:41:47.827Z,73.40
2018-11-10T06:44:17.240Z,67.67
2018-11-10T06:46:46.702Z,72.60
2018-11-10T06:49:16.512Z,72.57
2018-11-10T06:51:46.200Z,80.53
2018-11-10T06:54:15.224Z,69.30
2018-11-10T06:56:45.517Z,68.77
2018-11-10T06:59:14.648Z,73.60
2018-11-10T07:01:43.274Z,90.63
2018-11-10T07:04:13.305Z,78.30
2018-11-10T07:06:43.706Z,82.60
2018-11-10T07:09:13.436Z,82.07
2018-11-10T07:11:42.734Z,81.57
2018-11-10T07:14:11.291Z,85.27
2018-11-10T07:16:40.794Z,71.83
2018-11-10T07:19:10.442Z,82.03
2018-11-10T07:21:39.976Z,84.33
2018-11-10T07:24:09.599Z,82.63
2018-11-10T07:26:38.150Z,81.60
2018-11-10T07:29:07.771Z,68.50
2018-11-10T07:31:37.481Z,70.13
2018-11-10T07:34:06.911Z,76.97
2018-11-10T07:36:36.442Z,87.10
2018-11-10T07:39:08.703Z,61.60
2018-11-10T07:41:38.220Z,75.50
2018-11-10T07:44:07.722Z,69.80
2018-11-10T07:46:37.195Z,77.07
2018-11-10T07:49:06.789Z,67.43
2018-11-10T07:51:37.531Z,74.20
2018-11-10T07:54:07.004Z,86.40
2018-11-10T07:56:36.455Z,64.80
2018-11-10T07:59:06.384Z,68.63
2018-11-10T08:01:35.847Z,69.50
2018-11-10T08:04:05.372Z,63.93
2018-11-10T08:06:33.905Z,86.50
2018-11-10T08:09:02.650Z,68.10
2018-11-10T08:11:32.072Z,60.70
2018-11-10T08:14:00.882Z,73.67
2018-11-10T08:16:30.367Z,65.17
2018-11-10T08:18:59.804Z,65.00
2018-11-10T08:21:28.362Z,67.77
2018-11-10T08:23:58.212Z,58.40
2018-11-10T08:26:27.805Z,81.17
2018-11-10T08:28:57.383Z,69.53
2018-11-10T08:31:26.858Z,78.07
2018-11-10T08:33:56.411Z,59.97
2018-11-10T08:36:26.126Z,68.80
2018-11-10T08:38:54.742Z,66.70
2018-11-10T08:41:24.395Z,74.50
2018-11-10T08:43:53.261Z,70.30
2018-11-10T08:46:21.851Z,66.60
2018-11-10T08:48:50.472Z,72.83
2018-11-10T08:51:20.068Z,71.93
2018-11-10T08:53:49.126Z,78.03
2018-11-10T08:56:18.961Z,78.47
2018-11-10T08:58:48.344Z,69.47
2018-11-10T09:01:17.935Z,63.73
2018-11-10T09:03:48.616Z,69.53
2018-11-10T09:06:17.216Z,64.93
2018-11-10T09:08:46.749Z,68.83
2018-11-10T09:11:16.401Z,67.00
2018-11-10T09:13:46.109Z,69.47
2018-11-10T09:16:15.282Z,62.90
2018-11-10T09:18:44.865Z,71.50
2018-11-10T09:21:14.053Z,61.80
2018-11-10T09:23:42.559Z,65.03
2018-11-10T09:26:11.943Z,61.60
2018-11-10T09:28:40.547Z,79.20
2018-11-10T09:31:09.353Z,61.70
2018-11-10T09:33:38.297Z,56.57
2018-11-10T09:36:06.889Z,62.83
2018-11-10T09:38:35.421Z,67.10
2018-11-10T09:41:05.118Z,69.17
2018-11-10T09:43:33.705Z,63.63
2018-11-10T09:46:02.271Z,59.93
2018-11-10T09:48:31.028Z,74.77
2018-11-10T09:50:59.633Z,68.53
2018-11-10T09:53:28.137Z,58.97
2018-11-10T09:55:57.124Z,60.70
2018-11-10T09:58:26.571Z,59.40
2018-11-10T10:00:55.156Z,59.13
2018-11-10T10:03:23.702Z,59.83
2018-11-10T10:05:52.276Z,67.87
2018-11-10T10:08:21.644Z,66.73
2018-11-10T10:10:50.229Z,62.63
2018-11-10T10:13:19.083Z,68.33
2018-11-10T10:15:47.635Z,57.60
2018-11-10T10:18:17.039Z,55.73
2018-11-10T10:20:46.224Z,60.87
2018-11-10T10:23:15.407Z,52.23
2018-11-10T10:25:44.556Z,55.40
2018-11-10T10:28:13.432Z,59.33
2018-11-10T10:30:42.220Z,56.27
2018-11-10T10:33:11.956Z,52.00
2018-11-10T10:35:40.682Z,56.03
2018-11-10T10:38:10.170Z,52.07
2018-11-10T10:40:39.701Z,54.60
2018-11-10T10:43:08.569Z,59.10
2018-11-10T10:45:38.095Z,55.00
2018-11-10T10:48:06.696Z,53.00
2018-11-10T10:50:35.287Z,53.17
2018-11-10T10:53:03.842Z,50.90
2018-11-10T10:55:32.402Z,51.00
2018-11-10T10:58:00.965Z,45.00
2018-11-10T11:00:34.732Z,50.53
2018-11-10T11:03:08.535Z,52.03
2018-11-10T11:05:49.261Z,59.10
2018-11-10T11:08:17.827Z,46.57
2018-11-10T11:10:48.057Z,56.43
2018-11-10T11:13:16.825Z,49.77
2018-11-10T11:15:46.273Z,49.10
2018-11-10T11:18:15.704Z,47.30
2018-11-10T11:20:46.336Z,50.20
2018-11-10T11:23:15.435Z,50.60
2018-11-10T11:25:44.555Z,45.23
2018-11-10T11:28:13.286Z,47.03
2018-11-10T11:30:41.854Z,55.20
2018-11-10T11:33:10.483Z,48.20
2018-11-10T11:35:38.999Z,41.47
2018-11-10T11:38:07.607Z,47.30
2018-11-10T11:40:36.176Z,45.87
2018-11-10T11:43:05.361Z,42.10
2018-11-10T11:45:33.894Z,41.77
2018-11-10T11:48:02.731Z,38.30
2018-11-10T11:50:31.285Z,35.93
2018-11-10T11:53:00.133Z,37.97
2018-11-10T11:55:29.665Z,38.67
2018-11-10T11:57:59.328Z,35.90
2018-11-10T12:00:28.626Z,40.87
2018-11-10T12:02:57.223Z,39.50
2018-11-10T12:05:25.807Z,41.40
2018-11-10T12:07:54.388Z,37.03
2018-11-10T12:10:23.835Z,37.67
2018-11-10T12:12:52.365Z,44.00
2018-11-10T12:15:20.978Z,37.20
2018-11-10T12:17:49.516Z,36.43
2018-11-10T12:20:18.034Z,41.57
2018-11-10T12:22:47.577Z,45.63
2018-11-10T12:25:17.921Z,37.30
2018-11-10T12:27:46.467Z,35.57
2018-11-10T12:30:16.882Z,37.63
2018-11-10T12:32:46.163Z,38.70
2018-11-10T12:35:15.008Z,49.97
2018-11-10T12:37:44.491Z,46.90
2018-11-10T12:40:15.071Z,37.37
2018-11-10T12:42:44.896Z,39.10
2018-11-10T12:45:14.282Z,42.53
2018-11-10T12:47:43.423Z,37.03
2018-11-10T12:50:13.210Z,40.57
2018-11-10T12:52:43.287Z,40.20
2018-11-10T12:55:14.677Z,39.70
2018-11-10T12:57:45.025Z,34.33
2018-11-10T13:00:15.115Z,32.37
2018-11-10T13:02:45.221Z,37.93
2018-11-10T13:05:15.545Z,38.00
2018-11-10T13:07:46.777Z,38.20
2018-11-10T13:10:16.046Z,39.03
2018-11-10T13:12:45.064Z,38.87
2018-11-10T13:15:15.469Z,43.70
2018-11-10T13:17:45.569Z,34.63
2018-11-10T13:20:15.207Z,33.87
2018-11-10T13:22:44.648Z,34.00
2018-11-10T13:25:14.448Z,37.70
2018-11-10T13:27:43.327Z,29.90
2018-11-10T13:30:14.504Z,33.57
2018-11-10T13:32:43.415Z,35.00
2018-11-10T13:35:14.655Z,38.20
2018-11-10T13:37:43.226Z,29.80
2018-11-10T13:40:12.813Z,37.43
2018-11-10T13:42:42.321Z,30.67
2018-11-10T13:45:12.513Z,30.60
2018-11-10T13:47:41.154Z,33.57
2018-11-10T13:50:10.817Z,40.10
2018-11-10T13:52:40.559Z,33.80
2018-11-10T13:55:09.829Z,34.30
2018-11-10T13:57:38.507Z,31.50
2018-11-10T14:00:09.831Z,35.77
2018-11-10T14:02:39.283Z,34.50
2018-11-10T14:05:08.042Z,31.73
2018-11-10T14:07:36.752Z,36.60
2018-11-10T14:10:06.347Z,35.33
2018-11-10T14:12:35.008Z,43.40
2018-11-10T14:15:03.690Z,40.00
2018-11-10T14:17:33.145Z,36.67
2018-11-10T14:20:02.688Z,30.03
2018-11-10T14:22:31.406Z,36.40
2018-11-10T14:24:59.962Z,35.70
2018-11-10T14:27:29.377Z,34.70
2018-11-10T14:29:58.018Z,37.23
2018-11-10T14:32:27.541Z,34.93
2018-11-10T14:34:57.481Z,41.40
2018-11-10T14:37:26.054Z,37.23
2018-11-10T14:39:55.722Z,37.60
2018-11-10T14:42:24.741Z,33.73
2018-11-10T14:44:54.161Z,44.13
2018-11-10T14:47:22.759Z,36.43
2018-11-10T14:49:52.340Z,38.07
2018-11-10T14:52:20.973Z,30.93
2018-11-10T14:54:50.455Z,30.17
2018-11-10T14:57:19.885Z,38.07
2018-11-10T14:59:48.442Z,33.77
2018-11-10T15:02:16.983Z,38.93
2018-11-10T15:04:46.701Z,37.57
2018-11-10T15:07:16.951Z,39.47
2018-11-10T15:09:47.405Z,36.13
2018-11-10T15:12:17.515Z,35.93
2018-11-10T15:17:45.878Z,40.33
2018-11-10T15:20:17.735Z,509.60
2018-11-10T15:22:47.603Z,109.40
2018-11-10T15:25:18.583Z,39.00
2018-11-10T15:27:47.135Z,41.63
2018-11-10T15:30:18.102Z,43.93
2018-11-10T15:32:47.997Z,34.03
2018-11-10T15:35:17.745Z,41.10
2018-11-10T15:37:48.944Z,37.50
2018-11-10T15:40:18.869Z,42.10
2018-11-10T15:42:48.346Z,38.20
2018-11-10T15:45:18.036Z,38.30
2018-11-10T15:47:46.881Z,44.20
2018-11-10T15:50:17.488Z,46.10
2018-11-10T15:52:46.544Z,46.87
2018-11-10T15:55:15.650Z,43.90
2018-11-10T15:57:46.045Z,44.60
2018-11-10T16:00:17.790Z,47.80
2018-11-10T16:02:47.330Z,46.50
2018-11-10T16:05:17.331Z,42.20
2018-11-10T16:07:46.619Z,41.30
2018-11-10T16:10:16.141Z,47.17
2018-11-10T16:12:45.573Z,45.83
2018-11-10T16:15:15.530Z,43.43
2018-11-10T16:17:44.813Z,42.10
2018-11-10T16:20:15.581Z,46.23
2018-11-10T16:22:45.836Z,44.37
2018-11-10T16:25:14.373Z,50.93
2018-11-10T16:27:44.269Z,43.90
2018-11-10T16:30:15.209Z,47.70
2018-11-10T16:32:44.689Z,45.60
2018-11-10T16:35:13.437Z,40.53
2018-11-10T16:37:42.327Z,41.77
2018-11-10T16:40:14.236Z,47.93
2018-11-10T16:42:45.318Z,49.10
2018-11-10T16:45:15.376Z,51.40
2018-11-10T16:47:45.796Z,43.50
2018-11-10T16:50:14.344Z,37.20
2018-11-10T16:52:45.232Z,41.53
2018-11-10T16:55:15.589Z,49.63
2018-11-10T16:57:45.661Z,47.63
2018-11-10T17:00:17.777Z,41.67
2018-11-10T17:02:48.273Z,47.37
2018-11-10T17:05:17.748Z,45.93
2018-11-10T17:07:47.682Z,47.37
2018-11-10T17:10:19.051Z,48.23
2018-11-10T17:12:47.608Z,45.90
2018-11-10T17:15:18.109Z,48.17
2018-11-10T17:17:46.691Z,47.33
2018-11-10T17:20:17.417Z,69.00
2018-11-10T17:22:47.233Z,51.23
2018-11-10T17:25:16.885Z,51.20
2018-11-10T17:27:46.652Z,50.03
2018-11-10T17:30:18.770Z,46.93
2018-11-10T17:32:48.901Z,54.23
2018-11-10T17:35:18.844Z,56.40
2018-11-10T17:37:48.444Z,54.03
2018-11-10T17:40:17.496Z,57.27
2018-11-10T17:42:46.941Z,47.70
2018-11-10T17:45:18.642Z,47.33
2018-11-10T17:47:47.368Z,45.57
2018-11-10T17:50:17.227Z,47.90
2018-11-10T17:52:46.508Z,46.23
2018-11-10T17:55:16.565Z,46.97
2018-11-10T17:57:46.766Z,43.73
2018-11-10T18:00:16.665Z,44.83
2018-11-10T18:02:46.070Z,52.13
2018-11-10T18:05:15.570Z,50.90
2018-11-10T18:07:44.593Z,55.23
2018-11-10T18:10:15.345Z,56.40
2018-11-10T18:12:45.268Z,46.70
2018-11-10T18:15:14.507Z,44.13
2018-11-10T18:17:44.714Z,48.80
2018-11-10T18:20:15.416Z,48.83
2018-11-10T18:22:45.334Z,47.27
2018-11-10T18:25:15.095Z,51.30
2018-11-10T18:27:45.825Z,47.57
2018-11-10T18:30:15.664Z,50.50
2018-11-10T18:32:45.816Z,45.50
2018-11-10T18:35:15.531Z,52.17
2018-11-10T18:37:45.663Z,49.80
2018-11-10T18:40:15.256Z,56.47
2018-11-10T18:42:44.642Z,55.60
2018-11-10T18:45:14.582Z,53.83
2018-11-10T18:47:44.571Z,60.33
2018-11-10T18:50:14.614Z,57.27
2018-11-10T18:52:44.763Z,63.87
2018-11-10T18:55:14.812Z,51.90
2018-11-10T18:57:45.432Z,54.80
2018-11-10T19:00:16.118Z,55.00
2018-11-10T19:02:46.383Z,48.70
2018-11-10T19:05:17.516Z,51.83
2018-11-10T19:07:47.008Z,56.73
2018-11-10T19:10:17.066Z,59.23
2018-11-10T19:12:46.730Z,59.63
2018-11-10T19:15:18.549Z,58.67
2018-11-10T19:17:48.022Z,63.90
2018-11-10T19:20:17.308Z,65.07
2018-11-10T19:22:46.697Z,72.13
2018-11-10T19:25:17.442Z,56.37
2018-11-10T19:27:46.762Z,61.40
2018-11-10T19:30:17.993Z,64.00
2018-11-10T19:32:48.513Z,67.17
2018-11-10T19:35:17.987Z,67.73
2018-11-10T19:37:47.095Z,60.50
2018-11-10T19:40:16.851Z,61.13
2018-11-10T19:42:47.013Z,72.37
2018-11-10T19:45:16.041Z,73.53
2018-11-10T19:47:45.639Z,69.13
2018-11-10T19:50:15.409Z,64.37
2018-11-10T19:52:46.203Z,63.07
2018-11-10T19:55:16.567Z,81.50
2018-11-10T19:57:45.943Z,76.37
2018-11-10T20:00:24.914Z,74.47
2018-11-10T20:02:53.484Z,72.87
2018-11-10T20:05:22.066Z,83.93
2018-11-10T20:07:50.612Z,80.40
2018-11-10T20:10:19.191Z,91.33
2018-11-10T20:12:47.853Z,79.40
2018-11-10T20:15:17.179Z,94.00
2018-11-10T20:17:47.139Z,77.63
2018-11-10T20:20:17.905Z,83.73
2018-11-10T20:22:46.605Z,78.83
2018-11-10T20:25:17.200Z,93.30
2018-11-10T20:27:46.306Z,77.50
2018-11-10T20:30:17.619Z,83.87
2018-11-10T20:32:48.431Z,81.00
2018-11-10T20:35:17.077Z,81.03
2018-11-10T20:37:47.255Z,72.70
2018-11-10T20:40:17.297Z,82.80
2018-11-10T20:42:47.710Z,78.13
2018-11-10T20:45:18.885Z,73.23
2018-11-10T20:47:48.491Z,76.80
2018-11-10T20:50:17.546Z,75.00
2018-11-10T20:52:46.428Z,69.20
2018-11-10T20:55:16.069Z,78.30
2018-11-10T20:57:45.992Z,87.67
2018-11-10T21:00:18.624Z,85.57
2018-11-10T21:02:48.058Z,82.43
2018-11-10T21:05:18.424Z,83.73
2018-11-10T21:07:47.930Z,77.47
2018-11-10T21:10:18.800Z,70.20
2018-11-10T21:12:49.456Z,72.63
2018-11-10T21:15:19.554Z,71.07
2018-11-10T21:17:48.423Z,70.90
2018-11-10T21:20:18.144Z,73.17
2018-11-10T21:22:47.568Z,80.70
2018-11-10T21:25:17.940Z,75.73
2018-11-10T21:27:46.969Z,72.80
2018-11-10T21:30:17.714Z,76.57
2018-11-10T21:32:47.368Z,67.77
2018-11-10T21:35:17.076Z,91.37
2018-11-10T21:37:46.738Z,78.30
2018-11-10T21:40:18.549Z,71.40
2018-11-10T21:42:48.071Z,65.90
2018-11-10T21:45:17.328Z,72.33
2018-11-10T21:47:47.173Z,69.60
2018-11-10T21:50:17.933Z,80.97
2018-11-10T21:52:46.650Z,72.87
2018-11-10T21:55:17.937Z,68.70
2018-11-10T21:57:47.922Z,60.30
2018-11-10T22:00:19.081Z,61.80
2018-11-10T22:02:48.126Z,66.87
2018-11-10T22:05:18.460Z,74.40
2018-11-10T22:07:47.896Z,62.10
2018-11-10T22:10:18.486Z,90.63
2018-11-10T22:12:47.245Z,76.07
2018-11-10T22:15:21.238Z,70.30
2018-11-10T22:17:50.284Z,63.77
2018-11-10T22:20:20.454Z,78.97
2018-11-10T22:22:49.989Z,59.00
2018-11-10T22:25:19.469Z,67.30
2018-11-10T22:27:50.612Z,65.27
2018-11-10T22:30:20.321Z,71.50
2018-11-10T22:32:49.367Z,66.20
2018-11-10T22:35:17.923Z,69.87
2018-11-10T22:37:46.637Z,71.60
2018-11-10T22:40:18.623Z,79.17
2018-11-10T22:42:48.421Z,81.63
2018-11-10T22:45:18.323Z,75.63
2018-11-10T22:47:47.798Z,77.63
2018-11-10T22:50:21.222Z,74.30
2018-11-10T22:52:50.836Z,74.13
2018-11-10T22:55:19.377Z,81.03
2018-11-10T22:57:47.871Z,84.57
2018-11-10T23:00:21.425Z,79.03
2018-11-10T23:02:52.067Z,80.77
2018-11-10T23:05:21.275Z,87.03
2018-11-10T23:07:49.909Z,102.73
2018-11-10T23:10:18.825Z,91.77
2018-11-10T23:12:48.397Z,107.20
2018-11-10T23:15:16.920Z,93.03
2018-11-10T23:17:46.249Z,108.73
2018-11-10T23:20:16.150Z,96.90
2018-11-10T23:22:45.572Z,116.30
2018-11-10T23:25:15.291Z,89.17
2018-11-10T23:27:44.027Z,98.27
2018-11-10T23:30:17.246Z,81.80
2018-11-10T23:32:47.269Z,101.00
2018-11-10T23:35:16.705Z,93.50
2018-11-10T23:37:46.650Z,102.40
2018-11-10T23:40:17.623Z,112.53
2018-11-10T23:42:47.393Z,108.33
2018-11-10T23:45:17.195Z,106.13
2018-11-10T23:47:46.780Z,97.33
2018-11-10T23:50:17.301Z,108.27
2018-11-10T23:52:46.814Z,97.13
2018-11-10T23:55:16.628Z,75.67
2018-11-10T23:57:46.274Z,82.30
